Time;durP1;ratioP1;P1;durP2;ratioP2;P2;SDS_P1;SDS_P2;PMS_P1;PMS_P2;Temp;Humidity;BMP_temperature;BMP_pressure;BME280_temperature;BME280_humidity;BME280_pressure;Samples;Min_cycle;Max_cycle;Signal;HPM_P1;HPM_P2
2024/01/09 00:00:38;;;;;;;9.47;8.57;;;-10.30;56.60;;;;;;5050177;28;20900;-51
2024/01/09 00:03:05;;;;;;;10.37;8.20;;;-10.30;58.00;;;;;;5046221;28;21035;-51
2024/01/09 00:05:33;;;;;;;14.43;8.93;;;-10.30;63.30;;;;;;5050243;28;20478;-51
2024/01/09 00:07:59;;;;;;;13.17;9.57;;;-10.30;66.00;;;;;;5047503;28;20466;-50
2024/01/09 00:10:27;;;;;;;14.57;10.27;;;-10.30;56.90;;;;;;5041827;28;20462;-51
2024/01/09 00:12:53;;;;;;;12.70;10.37;;;-10.30;60.70;;;;;;5045110;28;20465;-51
2024/01/09 00:15:20;;;;;;;13.13;9.77;;;-10.30;54.50;;;;;;5048881;28;20475;-51
2024/01/09 00:17:47;;;;;;;13.73;9.50;;;-10.30;54.50;;;;;;5041624;28;21042;-51
2024/01/09 00:20:14;;;;;;;13.70;9.73;;;-10.30;56.70;;;;;;5046843;28;20509;-49
2024/01/09 00:22:42;;;;;;;11.57;9.17;;;-10.30;58.00;;;;;;5046085;28;20461;-50
2024/01/09 00:25:08;;;;;;;11.10;8.33;;;-10.30;61.20;;;;;;5045210;28;20951;-51
2024/01/09 00:27:35;;;;;;;10.50;8.33;;;-10.30;61.00;;;;;;5048836;28;20846;-50
2024/01/09 00:30:02;;;;;;;10.70;8.60;;;-10.40;62.30;;;;;;5043003;28;20461;-51
2024/01/09 00:32:29;;;;;;;10.43;8.87;;;-10.30;51.60;;;;;;5047639;28;20951;-50
2024/01/09 00:34:55;;;;;;;10.03;8.40;;;-10.30;48.60;;;;;;5049446;28;20930;-50
2024/01/09 00:37:22;;;;;;;17.20;10.80;;;-10.30;55.20;;;;;;5046308;28;20443;-50
2024/01/09 00:39:51;;;;;;;10.60;8.80;;;-10.40;63.20;;;;;;5049508;28;20898;-50
2024/01/09 00:42:18;;;;;;;11.10;8.60;;;-10.40;64.70;;;;;;5045023;28;20570;-50
2024/01/09 00:44:45;;;;;;;12.03;8.77;;;-10.40;66.40;;;;;;5048263;28;20523;-51
2024/01/09 00:47:11;;;;;;;12.47;10.30;;;-10.50;67.60;;;;;;5042447;28;20924;-51
2024/01/09 00:49:38;;;;;;;13.80;10.13;;;-10.50;71.10;;;;;;5048571;28;20468;-50
2024/01/09 00:52:05;;;;;;;13.13;9.40;;;-10.50;55.70;;;;;;5054424;28;20461;-51
2024/01/09 00:54:32;;;;;;;9.80;8.77;;;-10.50;60.20;;;;;;5054538;28;20458;-50
2024/01/09 00:56:59;;;;;;;10.90;8.73;;;-10.30;37.80;;;;;;5053755;28;20485;-51
2024/01/09 00:59:26;;;;;;;12.10;8.30;;;-10.40;55.60;;;;;;5049444;28;20457;-50
2024/01/09 01:01:53;;;;;;;11.50;8.60;;;-10.50;62.30;;;;;;5050710;28;20457;-49
2024/01/09 01:04:19;;;;;;;14.10;9.90;;;-10.50;55.60;;;;;;5049740;28;20552;-51
2024/01/09 01:06:46;;;;;;;11.93;9.43;;;-10.50;51.50;;;;;;5046174;28;20927;-50
2024/01/09 01:09:13;;;;;;;10.63;9.07;;;-10.50;60.40;;;;;;5049836;28;20454;-50
2024/01/09 01:11:39;;;;;;;11.83;9.37;;;-10.60;67.40;;;;;;5051119;28;20518;-51
2024/01/09 01:14:07;;;;;;;17.73;13.27;;;-10.70;67.50;;;;;;5046768;28;20571;-50
2024/01/09 01:16:34;;;;;;;15.57;11.10;;;-10.60;69.00;;;;;;5046560;28;20887;-51
2024/01/09 01:19:01;;;;;;;19.57;14.00;;;-10.70;69.20;;;;;;5048095;28;20564;-50
2024/01/09 01:21:27;;;;;;;32.53;18.60;;;-10.70;70.30;;;;;;5052409;28;20539;-52
2024/01/09 01:23:54;;;;;;;27.20;17.37;;;-10.60;75.00;;;;;;5043911;28;20947;-55
2024/01/09 01:26:20;;;;;;;31.10;19.80;;;-10.70;72.40;;;;;;5050520;28;20539;-55
2024/01/09 01:28:47;;;;;;;31.17;21.03;;;-10.70;74.50;;;;;;5050266;28;20476;-55
2024/01/09 01:31:15;;;;;;;43.77;27.37;;;-10.70;76.00;;;;;;5050345;28;20869;-54
2024/01/09 01:33:41;;;;;;;35.73;22.80;;;-10.70;75.00;;;;;;5052112;28;20860;-55
2024/01/09 01:36:14;;;;;;;37.77;23.77;;;-10.70;71.30;;;;;;5051346;28;20481;-55
2024/01/09 01:38:41;;;;;;;30.87;19.50;;;-10.80;76.40;;;;;;5051425;28;20523;-54
2024/01/09 01:41:07;;;;;;;29.20;19.20;;;-10.80;75.70;;;;;;5042434;28;20550;-55
2024/01/09 01:43:34;;;;;;;22.03;15.10;;;-10.70;66.20;;;;;;5045861;28;20466;-56
2024/01/09 01:46:00;;;;;;;16.20;10.03;;;-10.80;68.60;;;;;;5050977;28;20531;-54
2024/01/09 01:48:30;;;;;;;15.53;11.10;;;-10.80;62.90;;;;;;5051375;28;20466;-55
2024/01/09 01:50:57;;;;;;;14.50;11.83;;;-10.70;61.20;;;;;;5051636;28;20538;-55
2024/01/09 01:53:25;;;;;;;17.20;11.20;;;-10.70;66.60;;;;;;5052568;28;20458;-55
2024/01/09 01:55:52;;;;;;;10.70;9.10;;;-10.50;55.00;;;;;;5052564;28;20458;-54
2024/01/09 01:58:19;;;;;;;14.57;10.77;;;-10.60;63.70;;;;;;5048303;28;20462;-54
2024/01/09 02:00:46;;;;;;;17.60;13.10;;;-10.70;69.10;;;;;;5051962;28;20485;-55
2024/01/09 02:03:14;;;;;;;19.77;12.90;;;-10.70;75.30;;;;;;5046677;28;20462;-54
2024/01/09 02:05:42;;;;;;;15.63;11.03;;;-10.80;78.70;;;;;;5052124;28;20539;-54
2024/01/09 02:08:10;;;;;;;13.40;10.07;;;-10.80;58.50;;;;;;5050550;28;20509;-54
2024/01/09 02:10:36;;;;;;;11.57;9.60;;;-10.80;60.90;;;;;;5052110;28;20462;-55
2024/01/09 02:13:03;;;;;;;12.40;9.97;;;-10.80;59.40;;;;;;5052033;28;20469;-55
2024/01/09 02:15:30;;;;;;;12.50;9.80;;;-10.80;63.10;;;;;;5048582;28;20563;-54
2024/01/09 02:17:57;;;;;;;10.77;9.20;;;-10.80;73.30;;;;;;5047383;28;20520;-56
2024/01/09 02:20:24;;;;;;;10.53;8.90;;;-10.90;77.70;;;;;;5064465;28;20474;-54
2024/01/09 02:22:51;;;;;;;13.53;9.20;;;-10.80;69.40;;;;;;5062489;28;20466;-54
2024/01/09 02:25:18;;;;;;;11.33;9.20;;;-10.80;70.80;;;;;;5042382;28;20929;-54
2024/01/09 02:27:54;;;;;;;10.13;8.93;;;-10.90;76.70;;;;;;5047617;28;20875;-52
2024/01/09 02:30:22;;;;;;;10.73;9.00;;;-10.90;78.80;;;;;;5051547;28;20526;-52
2024/01/09 02:32:49;;;;;;;12.00;9.20;;;-10.80;75.10;;;;;;5044629;28;20539;-52
2024/01/09 02:35:16;;;;;;;14.40;10.23;;;-10.80;66.10;;;;;;5047014;28;20523;-52
2024/01/09 02:37:43;;;;;;;12.80;9.97;;;-10.60;57.60;;;;;;5048069;28;20458;-53
2024/01/09 02:40:10;;;;;;;15.30;9.50;;;-10.70;64.80;;;;;;5047054;28;20493;-53
2024/01/09 02:42:36;;;;;;;15.17;9.10;;;-10.70;66.30;;;;;;5049567;28;20520;-53
2024/01/09 02:45:03;;;;;;;11.60;8.50;;;-10.80;72.20;;;;;;5045458;28;20458;-52
2024/01/09 02:47:31;;;;;;;12.17;9.80;;;-10.80;67.40;;;;;;5048981;28;20546;-52
2024/01/09 02:49:57;;;;;;;12.00;9.63;;;-10.80;69.50;;;;;;5033968;28;21003;-53
2024/01/09 02:52:24;;;;;;;11.60;9.03;;;-10.70;61.70;;;;;;5045088;28;20941;-52
2024/01/09 02:54:50;;;;;;;13.33;9.57;;;-10.70;68.60;;;;;;5046824;28;20951;-53
2024/01/09 02:57:17;;;;;;;14.40;9.67;;;-10.80;76.80;;;;;;5046088;28;20520;-53
2024/01/09 02:59:43;;;;;;;16.10;9.80;;;-10.80;78.60;;;;;;5067060;28;20462;-53
2024/01/09 03:02:10;;;;;;;13.97;10.00;;;-10.80;75.00;;;;;;5064343;28;20473;-53
2024/01/09 03:04:38;;;;;;;14.10;10.60;;;-10.80;73.90;;;;;;5064829;28;20465;-53
2024/01/09 03:07:05;;;;;;;14.80;9.83;;;-10.80;68.70;;;;;;5049799;28;20509;-53
2024/01/09 03:09:33;;;;;;;14.87;10.40;;;-10.70;56.60;;;;;;5052493;28;20484;-53
2024/01/09 03:11:59;;;;;;;14.20;10.03;;;-10.60;62.90;;;;;;5054385;28;20457;-53
2024/01/09 03:14:26;;;;;;;11.73;9.40;;;-10.80;76.90;;;;;;5045734;28;20488;-53
2024/01/09 03:16:51;;;;;;;14.57;9.17;;;-10.80;83.00;;;;;;5051185;28;20513;-52
2024/01/09 03:19:18;;;;;;;12.63;9.23;;;-10.90;84.30;;;;;;5047432;28;20539;-54
2024/01/09 03:21:47;;;;;;;13.37;9.70;;;-11.00;86.20;;;;;;5051622;28;20698;-52
2024/01/09 03:24:14;;;;;;;14.60;10.57;;;-11.00;86.30;;;;;;5051628;28;20452;-53
2024/01/09 03:26:40;;;;;;;13.07;10.17;;;-11.00;80.90;;;;;;5051470;28;20474;-52
2024/01/09 03:29:07;;;;;;;14.70;11.50;;;-11.00;81.40;;;;;;5043041;28;20466;-51
2024/01/09 03:31:33;;;;;;;16.30;10.70;;;-11.10;79.40;;;;;;5051302;28;20503;-53
2024/01/09 03:34:00;;;;;;;12.07;9.53;;;-11.00;76.00;;;;;;5052273;28;20450;-53
2024/01/09 03:36:26;;;;;;;15.33;11.03;;;-10.90;64.60;;;;;;5051539;28;20481;-52
2024/01/09 03:38:55;;;;;;;14.60;10.20;;;-10.90;76.30;;;;;;5049875;28;20523;-52
2024/01/09 03:41:22;;;;;;;17.10;11.30;;;-10.90;85.80;;;;;;5045815;28;20995;-52
2024/01/09 03:43:50;;;;;;;15.27;9.97;;;-11.00;89.20;;;;;;5046172;28;20450;-52
2024/01/09 03:46:16;;;;;;;14.50;10.97;;;-11.00;90.90;;;;;;5046554;28;21022;-53
2024/01/09 03:48:43;;;;;;;11.70;9.70;;;-11.00;92.70;;;;;;5050269;28;20450;-53
2024/01/09 03:51:09;;;;;;;17.33;10.30;;;-11.00;87.90;;;;;;5050826;28;20974;-52
2024/01/09 03:53:35;;;;;;;17.23;10.47;;;-11.00;87.90;;;;;;5050158;28;20887;-52
2024/01/09 03:56:03;;;;;;;13.20;9.43;;;-11.10;87.60;;;;;;5050879;28;20505;-53
2024/01/09 03:58:30;;;;;;;13.27;9.60;;;-11.00;87.80;;;;;;5050302;28;20200;-53
2024/01/09 04:00:56;;;;;;;15.53;9.97;;;-11.10;80.60;;;;;;5049655;28;20513;-52
2024/01/09 04:03:23;;;;;;;13.53;8.97;;;-11.20;79.30;;;;;;5046178;28;20501;-53
2024/01/09 04:05:50;;;;;;;15.47;10.50;;;-11.10;82.40;;;;;;5047440;28;20508;-52
2024/01/09 04:08:16;;;;;;;15.30;10.30;;;-11.10;76.70;;;;;;5049935;28;20493;-52
2024/01/09 04:10:43;;;;;;;14.00;10.80;;;-11.10;74.40;;;;;;5049792;28;20490;-52
2024/01/09 04:13:11;;;;;;;15.23;10.30;;;-10.90;63.00;;;;;;5050400;28;20462;-52
2024/01/09 04:15:39;;;;;;;17.27;11.43;;;-10.90;79.90;;;;;;5041917;28;20595;-52
2024/01/09 04:18:05;;;;;;;14.93;9.60;;;-11.00;82.40;;;;;;5049799;28;20484;-52
2024/01/09 04:20:32;;;;;;;12.73;10.50;;;-11.00;85.50;;;;;;5059231;28;20462;-53
2024/01/09 04:22:59;;;;;;;14.83;10.23;;;-11.00;91.00;;;;;;5047723;28;20465;-53
2024/01/09 04:25:25;;;;;;;16.67;11.43;;;-11.20;96.10;;;;;;5048241;28;20535;-53
2024/01/09 04:27:52;;;;;;;16.50;10.90;;;-11.20;92.10;;;;;;5050102;28;20523;-52
2024/01/09 04:30:20;;;;;;;12.30;9.97;;;-11.30;88.70;;;;;;5048614;28;20453;-53
2024/01/09 04:32:46;;;;;;;13.60;9.70;;;-11.20;80.10;;;;;;5038877;28;20485;-54
2024/01/09 04:35:13;;;;;;;15.87;11.03;;;-11.10;71.50;;;;;;5046793;28;20834;-53
2024/01/09 04:37:39;;;;;;;12.77;9.77;;;-11.10;73.50;;;;;;5045658;28;20872;-58
2024/01/09 04:40:07;;;;;;;12.97;8.67;;;-11.10;80.80;;;;;;5047798;28;20611;-53
2024/01/09 04:42:34;;;;;;;13.93;10.43;;;-11.10;80.30;;;;;;5046039;28;20516;-52
2024/01/09 04:45:00;;;;;;;13.50;10.03;;;-11.10;82.70;;;;;;5048725;28;20462;-53
2024/01/09 04:47:28;;;;;;;14.43;10.03;;;-11.20;92.70;;;;;;5045869;28;20466;-53
2024/01/09 04:49:55;;;;;;;18.20;11.13;;;-11.30;91.60;;;;;;5044849;28;20494;-52
2024/01/09 04:52:21;;;;;;;13.00;9.80;;;-11.30;93.40;;;;;;5048777;28;20467;-52
2024/01/09 04:54:48;;;;;;;18.70;10.47;;;-11.30;90.20;;;;;;5048042;28;20901;-52
2024/01/09 04:57:14;;;;;;;15.33;11.70;;;-11.30;89.40;;;;;;5049837;28;20481;-52
2024/01/09 04:59:42;;;;;;;14.43;11.03;;;-11.30;92.70;;;;;;5048128;28;20454;-53
2024/01/09 05:02:09;;;;;;;16.63;11.63;;;-11.30;91.60;;;;;;5048748;28;20991;-52
2024/01/09 05:04:37;;;;;;;13.67;10.80;;;-11.40;91.00;;;;;;5046921;28;20983;-53
2024/01/09 05:07:04;;;;;;;19.83;12.23;;;-11.30;90.30;;;;;;5046213;28;20513;-52
2024/01/09 05:09:30;;;;;;;20.43;14.80;;;-11.40;90.00;;;;;;5045260;28;20490;-52
2024/01/09 05:11:57;;;;;;;18.20;12.40;;;-11.40;90.60;;;;;;5050584;28;20470;-52
2024/01/09 05:14:24;;;;;;;16.97;12.57;;;-11.40;89.30;;;;;;5049021;28;20469;-53
2024/01/09 05:16:50;;;;;;;22.90;15.50;;;-11.40;92.00;;;;;;5046781;28;21032;-53
2024/01/09 05:19:17;;;;;;;25.30;15.50;;;-11.40;88.90;;;;;;5043921;28;20882;-53
2024/01/09 05:21:44;;;;;;;19.60;13.17;;;-11.50;93.60;;;;;;5040440;28;21351;-52
2024/01/09 05:24:11;;;;;;;17.77;12.70;;;-11.40;89.90;;;;;;5042638;28;21071;-52
2024/01/09 05:26:39;;;;;;;20.30;13.77;;;-11.50;93.30;;;;;;5045412;28;20490;-52
2024/01/09 05:29:06;;;;;;;16.80;12.43;;;-11.40;90.20;;;;;;5037225;28;20465;-52
2024/01/09 05:31:33;;;;;;;15.53;12.20;;;-11.40;82.20;;;;;;5048166;28;20508;-52
2024/01/09 05:33:59;;;;;;;15.53;11.20;;;-11.50;79.00;;;;;;5041274;28;20458;-53
2024/01/09 05:36:26;;;;;;;16.40;11.00;;;-11.50;86.20;;;;;;5046878;28;20898;-52
2024/01/09 05:38:54;;;;;;;19.27;11.47;;;-11.40;79.20;;;;;;5043856;28;20462;-52
2024/01/09 05:41:21;;;;;;;18.60;12.60;;;-11.30;86.50;;;;;;5046687;28;20559;-52
2024/01/09 05:43:47;;;;;;;15.40;10.87;;;-11.40;93.00;;;;;;5043464;28;20523;-53
2024/01/09 05:46:14;;;;;;;13.30;10.03;;;-11.40;95.70;;;;;;5047947;28;20485;-52
2024/01/09 05:48:40;;;;;;;14.67;10.90;;;-11.40;88.70;;;;;;5040856;28;20523;-53
2024/01/09 05:51:09;;;;;;;14.07;9.87;;;-11.40;82.20;;;;;;5047777;28;20519;-53
2024/01/09 05:53:35;;;;;;;19.67;15.57;;;-11.40;80.90;;;;;;5049061;28;20541;-53
2024/01/09 05:56:04;;;;;;;14.87;11.87;;;-11.40;85.30;;;;;;5047793;28;20976;-53
2024/01/09 05:58:30;;;;;;;16.83;11.87;;;-11.40;85.00;;;;;;5049572;28;20539;-53
2024/01/09 06:00:57;;;;;;;16.03;11.20;;;-11.30;78.30;;;;;;5043428;28;20508;-53
2024/01/09 06:03:23;;;;;;;13.10;10.40;;;-11.40;88.10;;;;;;5044984;28;21085;-53
2024/01/09 06:05:50;;;;;;;17.80;11.40;;;-11.50;88.60;;;;;;5046581;28;20478;-52
2024/01/09 06:08:17;;;;;;;14.03;10.57;;;-11.40;87.70;;;;;;5047519;28;20476;-53
2024/01/09 06:10:43;;;;;;;16.20;10.40;;;-11.40;84.80;;;;;;5045165;28;21088;-52
2024/01/09 06:13:11;;;;;;;17.40;12.37;;;-11.40;91.10;;;;;;5045890;28;20511;-53
2024/01/09 06:15:38;;;;;;;12.87;9.57;;;-11.40;94.90;;;;;;5055241;28;20481;-53
2024/01/09 06:18:04;;;;;;;14.50;11.03;;;-11.40;92.10;;;;;;5050094;28;20547;-54
2024/01/09 06:20:31;;;;;;;13.67;10.43;;;-11.40;84.00;;;;;;5048769;28;20489;-55
2024/01/09 06:22:57;;;;;;;13.43;10.47;;;-11.30;82.10;;;;;;5045783;28;20521;-55
2024/01/09 06:25:24;;;;;;;16.67;11.10;;;-11.50;91.20;;;;;;5046870;28;20547;-55
2024/01/09 06:27:51;;;;;;;18.10;12.10;;;-11.40;89.40;;;;;;5051823;28;20458;-54
2024/01/09 06:30:18;;;;;;;18.43;12.93;;;-11.40;95.80;;;;;;5049889;28;20462;-55
2024/01/09 06:32:45;;;;;;;13.33;10.27;;;-11.50;98.20;;;;;;5044668;28;20485;-55
2024/01/09 06:35:12;;;;;;;17.07;11.47;;;-11.50;99.90;;;;;;5062422;28;20458;-55
2024/01/09 06:37:38;;;;;;;16.70;11.40;;;-11.60;97.20;;;;;;5069867;28;20462;-55
2024/01/09 06:40:06;;;;;;;15.37;10.47;;;-11.60;97.20;;;;;;5053577;28;20935;-54
2024/01/09 06:42:33;;;;;;;15.57;10.90;;;-11.60;98.50;;;;;;5052704;28;20527;-55
2024/01/09 06:44:59;;;;;;;20.87;13.60;;;-11.60;99.90;;;;;;5048551;28;20536;-54
2024/01/09 06:47:27;;;;;;;21.27;13.93;;;-11.60;98.00;;;;;;5048405;28;20493;-54
2024/01/09 06:49:54;;;;;;;30.23;17.40;;;-11.60;97.30;;;;;;5046787;28;20462;-54
2024/01/09 06:52:20;;;;;;;30.27;20.17;;;-11.70;97.00;;;;;;5045007;28;20477;-54
2024/01/09 06:54:47;;;;;;;40.40;22.60;;;-11.70;93.90;;;;;;5047907;28;20541;-54
2024/01/09 06:57:13;;;;;;;31.57;19.47;;;-11.60;89.50;;;;;;5049446;28;20493;-54
2024/01/09 06:59:44;;;;;;;20.40;13.03;;;-11.70;94.50;;;;;;5050536;28;20461;-54
2024/01/09 07:02:10;;;;;;;18.50;13.57;;;-11.60;79.30;;;;;;5047365;28;20535;-54
2024/01/09 07:04:38;;;;;;;19.13;13.40;;;-11.50;79.70;;;;;;5040864;28;20542;-53
2024/01/09 07:07:06;;;;;;;96.70;56.33;;;-11.50;89.70;;;;;;5045668;28;20485;-54
2024/01/09 07:09:33;;;;;;;51.73;34.20;;;-11.50;97.10;;;;;;5045568;28;21002;-55
2024/01/09 07:12:00;;;;;;;33.07;21.10;;;-11.50;96.50;;;;;;5048448;28;20450;-54
2024/01/09 07:14:26;;;;;;;24.20;17.77;;;-11.50;99.60;;;;;;5048201;28;20539;-55
2024/01/09 07:16:53;;;;;;;21.10;15.13;;;-11.50;99.70;;;;;;5050134;28;20509;-54
2024/01/09 07:19:19;;;;;;;16.90;12.80;;;-11.40;97.10;;;;;;5047911;28;20516;-54
2024/01/09 07:21:47;;;;;;;19.33;13.03;;;-11.40;98.60;;;;;;5046809;28;20589;-54
2024/01/09 07:24:14;;;;;;;16.47;13.70;;;-11.30;98.10;;;;;;5046318;28;20523;-55
2024/01/09 07:26:41;;;;;;;15.80;11.63;;;-11.30;99.90;;;;;;5046306;28;21022;-54
2024/01/09 07:29:08;;;;;;;17.03;11.47;;;-11.20;95.20;;;;;;5043479;28;20467;-55
2024/01/09 07:31:34;;;;;;;17.30;12.33;;;-11.20;86.00;;;;;;5050101;28;20473;-55
2024/01/09 07:34:01;;;;;;;20.00;13.30;;;-11.20;91.40;;;;;;5050246;28;20466;-54
2024/01/09 07:36:28;;;;;;;18.70;13.00;;;-11.20;89.30;;;;;;5045909;28;20483;-55
2024/01/09 07:38:55;;;;;;;16.57;12.93;;;-11.20;84.10;;;;;;5050099;28;20880;-54
2024/01/09 07:41:22;;;;;;;20.10;12.70;;;-11.10;92.90;;;;;;5047311;28;20903;-54
2024/01/09 07:43:48;;;;;;;19.27;12.20;;;-11.10;95.80;;;;;;5050168;28;21003;-54
2024/01/09 07:46:15;;;;;;;15.83;10.97;;;-11.00;89.40;;;;;;5045438;28;21007;-54
2024/01/09 07:48:42;;;;;;;19.17;11.57;;;-11.10;90.70;;;;;;5044752;28;20547;-54
2024/01/09 07:51:08;;;;;;;16.13;11.47;;;-10.90;84.90;;;;;;5040355;28;20940;-54
2024/01/09 07:53:35;;;;;;;18.30;12.33;;;-11.10;93.20;;;;;;5050950;28;20461;-55
2024/01/09 07:56:03;;;;;;;13.53;11.17;;;-11.00;90.60;;;;;;5049217;28;20521;-55
2024/01/09 07:58:29;;;;;;;22.20;13.07;;;-11.10;86.40;;;;;;5049405;28;20446;-55
2024/01/09 08:00:56;;;;;;;21.70;12.80;;;-11.00;87.80;;;;;;5049608;28;20458;-55
2024/01/09 08:03:22;;;;;;;22.37;13.03;;;-11.00;88.70;;;;;;5041426;28;20533;-54
2024/01/09 08:05:49;;;;;;;14.87;11.70;;;-10.90;82.50;;;;;;5036429;28;20566;-54
2024/01/09 08:08:15;;;;;;;16.20;11.50;;;-10.80;84.80;;;;;;5040204;28;20963;-54
2024/01/09 08:10:42;;;;;;;16.20;12.17;;;-10.90;84.80;;;;;;5042061;28;20449;-54
2024/01/09 08:13:10;;;;;;;19.60;13.00;;;-10.70;77.60;;;;;;5045521;28;20465;-55
2024/01/09 08:15:36;;;;;;;27.10;17.40;;;-10.60;76.40;;;;;;5055457;28;20486;-54
2024/01/09 08:18:03;;;;;;;20.80;14.50;;;-10.50;77.10;;;;;;5053779;28;20461;-55
2024/01/09 08:20:30;;;;;;;21.73;15.73;;;-10.50;78.30;;;;;;5051806;28;20457;-55
2024/01/09 08:22:57;;;;;;;18.83;12.57;;;-10.40;75.80;;;;;;5058251;28;20482;-55
2024/01/09 08:27:53;;;;;;;18.80;13.37;;;-10.30;74.90;;;;;;5062396;28;20473;-54
2024/01/09 08:30:21;;;;;;;21.00;13.47;;;-10.10;78.40;;;;;;5065144;28;20573;-53
2024/01/09 08:32:48;;;;;;;19.67;13.57;;;-9.80;91.10;;;;;;5063438;28;20939;-53
2024/01/09 08:35:14;;;;;;;19.17;13.67;;;-9.60;93.80;;;;;;5066619;28;20534;-53
2024/01/09 08:37:41;;;;;;;20.67;14.07;;;-9.30;99.90;;;;;;5046217;28;20524;-52
2024/01/09 08:40:09;;;;;;;20.90;13.33;;;-9.20;99.90;;;;;;5040873;28;20506;-53
2024/01/09 08:42:35;;;;;;;22.70;13.37;;;-9.00;99.90;;;;;;5039556;28;20491;-53
2024/01/09 08:45:02;;;;;;;19.63;13.60;;;-9.10;99.90;;;;;;5040941;28;20940;-52
2024/01/09 08:47:30;;;;;;;20.50;12.87;;;-9.10;99.90;;;;;;5036702;28;20516;-54
2024/01/09 08:49:56;;;;;;;20.27;12.70;;;-8.70;99.90;;;;;;5034211;28;20490;-52
2024/01/09 08:52:25;;;;;;;18.27;13.30;;;-8.70;99.90;;;;;;5038977;28;20508;-54
2024/01/09 08:54:52;;;;;;;18.67;13.07;;;-8.40;99.90;;;;;;5042063;28;20453;-53
2024/01/09 08:57:19;;;;;;;19.83;12.90;;;-8.50;99.90;;;;;;5039125;28;21067;-53
2024/01/09 08:59:46;;;;;;;18.10;12.70;;;-8.60;99.90;;;;;;5047007;28;20485;-54
2024/01/09 09:02:12;;;;;;;18.27;12.53;;;-8.70;99.90;;;;;;5041797;28;20517;-54
2024/01/09 09:04:40;;;;;;;17.70;13.40;;;-8.60;99.90;;;;;;5048027;28;20825;-53
2024/01/09 09:07:07;;;;;;;18.63;13.13;;;-8.40;99.90;;;;;;5042008;28;20928;-53
2024/01/09 09:09:35;;;;;;;19.97;13.37;;;-8.30;99.90;;;;;;4977285;28;57497;-53
2024/01/09 09:12:02;;;;;;;19.47;12.97;;;-8.20;99.90;;;;;;5013804;28;20451;-53
2024/01/09 09:14:29;;;;;;;21.20;14.67;;;-8.30;99.90;;;;;;5013070;28;20446;-53
2024/01/09 09:16:55;;;;;;;21.40;14.00;;;-8.10;99.90;;;;;;5012542;28;20518;-53
2024/01/09 09:19:23;;;;;;;25.67;15.07;;;-7.80;99.90;;;;;;5016138;28;20457;-52
2024/01/09 09:21:50;;;;;;;21.83;12.93;;;-6.80;99.90;;;;;;5016885;28;20445;-53
2024/01/09 09:24:17;;;;;;;22.27;15.67;;;-7.00;99.90;;;;;;5012492;28;20514;-54
2024/01/09 09:26:44;;;;;;;25.50;14.90;;;-7.20;99.90;;;;;;5015684;28;21071;-53
2024/01/09 09:29:11;;;;;;;18.00;12.57;;;-7.20;99.90;;;;;;5018039;28;20443;-54
2024/01/09 09:31:37;;;;;;;18.43;13.00;;;-6.90;99.90;;;;;;5014016;28;20447;-53
2024/01/09 09:34:04;;;;;;;24.70;14.10;;;-7.00;99.90;;;;;;5008507;28;20460;-54
2024/01/09 09:36:30;;;;;;;27.47;18.20;;;-7.30;99.90;;;;;;5011514;28;20471;-52
2024/01/09 09:38:58;;;;;;;33.87;20.93;;;-7.00;99.90;;;;;;5015812;28;20524;-53
2024/01/09 09:41:25;;;;;;;28.57;17.67;;;-6.90;99.90;;;;;;5014346;28;20493;-53
2024/01/09 09:43:57;;;;;;;33.30;22.17;;;-7.00;99.90;;;;;;5014979;28;20493;-55
2024/01/09 09:46:25;;;;;;;37.23;25.40;;;-7.10;99.90;;;;;;5014001;28;20529;-52
2024/01/09 09:48:54;;;;;;;37.80;23.93;;;-7.00;99.90;;;;;;5011378;28;20456;-54
2024/01/09 09:51:21;;;;;;;35.00;23.00;;;-6.30;99.90;;;;;;5014322;28;20443;-53
2024/01/09 09:53:48;;;;;;;29.80;18.27;;;-4.70;99.90;;;;;;5014970;28;20513;-53
2024/01/09 09:56:16;;;;;;;36.60;26.77;;;-4.30;99.90;;;;;;5015097;28;20468;-54
2024/01/09 09:58:43;;;;;;;25.40;18.63;;;-4.60;99.90;;;;;;5020612;28;21009;-55
2024/01/09 10:01:12;;;;;;;32.53;20.93;;;-3.40;99.90;;;;;;5019458;28;20919;-54
2024/01/09 10:03:49;;;;;;;25.50;16.93;;;-2.80;99.90;;;;;;5018342;28;20569;-53
2024/01/09 10:06:17;;;;;;;23.17;17.13;;;-2.90;99.90;;;;;;5019540;28;20533;-54
2024/01/09 10:08:47;;;;;;;28.33;17.47;;;-2.70;99.90;;;;;;5009471;28;20501;-54
2024/01/09 10:11:15;;;;;;;19.77;15.33;;;-2.70;99.90;;;;;;5007534;28;20463;-52
2024/01/09 10:13:42;;;;;;;25.00;15.97;;;-2.10;99.90;;;;;;5006769;28;20517;-54
2024/01/09 10:16:09;;;;;;;23.30;15.10;;;-0.70;99.90;;;;;;5016402;28;20847;-54
2024/01/09 10:18:37;;;;;;;30.10;15.53;;;-0.90;99.90;;;;;;5016709;28;20467;-53
2024/01/09 10:21:05;;;;;;;21.20;14.50;;;-2.80;99.90;;;;;;5018346;28;20451;-54
2024/01/09 10:23:32;;;;;;;28.13;17.70;;;-3.20;99.90;;;;;;5014667;28;21016;-54
2024/01/09 10:25:58;;;;;;;24.03;16.73;;;-2.90;99.90;;;;;;5017035;28;21003;-53
2024/01/09 10:28:26;;;;;;;18.73;12.87;;;-2.00;99.90;;;;;;5014297;28;20447;-54
2024/01/09 10:30:53;;;;;;;19.27;13.50;;;-1.40;99.90;;;;;;5013423;28;20440;-54
2024/01/09 10:33:20;;;;;;;21.57;14.20;;;-2.10;99.90;;;;;;5012848;28;20439;-54
2024/01/09 10:35:47;;;;;;;17.60;12.57;;;-2.70;99.90;;;;;;5013760;28;20509;-53
2024/01/09 10:38:14;;;;;;;21.73;14.20;;;-3.50;99.90;;;;;;5013033;28;20933;-53
2024/01/09 10:40:40;;;;;;;21.10;14.80;;;-3.80;99.90;;;;;;5013479;28;20941;-53
2024/01/09 10:43:07;;;;;;;20.63;12.80;;;-4.10;99.90;;;;;;5011038;28;20523;-54
2024/01/09 10:45:36;;;;;;;21.67;13.77;;;-4.30;99.90;;;;;;5003106;28;20499;-53
2024/01/09 10:48:06;;;;;;;17.30;12.27;;;-4.30;99.90;;;;;;5004390;28;20451;-53
2024/01/09 10:50:34;;;;;;;16.43;11.63;;;-4.10;99.90;;;;;;4988800;28;20632;-53
2024/01/09 10:53:01;;;;;;;16.90;12.40;;;-4.00;99.90;;;;;;4996089;28;20934;-54
2024/01/09 10:55:28;;;;;;;19.93;13.67;;;-4.20;99.90;;;;;;5005293;28;20722;-54
2024/01/09 10:57:55;;;;;;;21.03;13.90;;;-4.50;99.90;;;;;;5002776;28;20526;-54
2024/01/09 11:00:22;;;;;;;21.67;12.53;;;-4.40;99.90;;;;;;5003897;28;20507;-53
2024/01/09 11:02:50;;;;;;;20.87;13.03;;;-4.50;99.90;;;;;;4993116;28;20470;-53
2024/01/09 11:05:17;;;;;;;19.60;13.20;;;-4.00;99.90;;;;;;5002734;28;20495;-52
2024/01/09 11:07:45;;;;;;;21.20;12.10;;;-3.40;99.90;;;;;;5005783;28;20495;-53
2024/01/09 11:10:17;;;;;;;21.07;13.20;;;-3.60;99.90;;;;;;5004287;28;20499;-54
2024/01/09 11:12:48;;;;;;;17.87;12.53;;;-3.90;99.90;;;;;;5003091;28;20502;-52
2024/01/09 11:15:20;;;;;;;18.23;11.70;;;-3.90;99.90;;;;;;5005680;28;20470;-54
2024/01/09 11:17:51;;;;;;;30.13;13.30;;;-3.50;99.90;;;;;;5000815;28;20561;-52
2024/01/09 11:20:18;;;;;;;18.20;12.20;;;-3.40;99.90;;;;;;5005958;28;20519;-52
2024/01/09 11:22:44;;;;;;;19.20;11.57;;;-3.60;99.90;;;;;;5003728;28;20460;-53
2024/01/09 11:25:15;;;;;;;14.27;10.83;;;-3.90;99.90;;;;;;5006289;28;20491;-54
2024/01/09 11:27:43;;;;;;;17.00;12.10;;;-3.60;99.90;;;;;;5005029;28;20521;-54
2024/01/09 11:30:14;;;;;;;15.30;11.20;;;-3.50;99.90;;;;;;5006260;28;20506;-53
2024/01/09 11:32:41;;;;;;;17.00;12.03;;;-3.60;99.90;;;;;;5010974;28;20850;-54
2024/01/09 11:35:15;;;;;;;18.53;11.60;;;-3.60;99.90;;;;;;5007720;28;20458;-54
2024/01/09 11:37:43;;;;;;;17.93;11.50;;;-3.60;99.90;;;;;;5006488;28;20482;-54
2024/01/09 11:40:12;;;;;;;18.43;11.53;;;-3.40;99.90;;;;;;5001179;28;20548;-52
2024/01/09 11:42:40;;;;;;;15.17;10.90;;;-3.20;99.90;;;;;;5004290;28;20492;-53
2024/01/09 11:45:09;;;;;;;16.83;11.77;;;-2.80;99.90;;;;;;5003774;28;20910;-60
2024/01/09 11:47:38;;;;;;;15.80;11.73;;;-2.30;99.90;;;;;;5002921;28;20567;-53
2024/01/09 11:50:07;;;;;;;15.40;11.97;;;-2.50;99.90;;;;;;5006180;28;20462;-54
2024/01/09 11:52:35;;;;;;;15.37;10.93;;;-2.70;99.90;;;;;;5010202;28;20473;-52
2024/01/09 11:55:02;;;;;;;12.30;10.27;;;-2.90;99.90;;;;;;5009010;28;20871;-53
2024/01/09 11:57:29;;;;;;;14.23;11.27;;;-3.00;99.90;;;;;;5005829;28;20558;-55
2024/01/09 11:59:56;;;;;;;15.20;10.03;;;-2.90;99.90;;;;;;5005565;28;20457;-57
2024/01/09 12:02:23;;;;;;;14.57;9.60;;;-3.10;99.90;;;;;;5001477;28;20473;-53
2024/01/09 12:04:52;;;;;;;14.47;9.27;;;-3.10;99.90;;;;;;5001016;28;20533;-53
2024/01/09 12:07:19;;;;;;;12.63;10.20;;;-3.10;99.90;;;;;;5004943;28;20479;-54
2024/01/09 12:09:49;;;;;;;11.77;9.27;;;-3.10;99.90;;;;;;5010091;28;20463;-54
2024/01/09 12:12:22;;;;;;;21.10;10.03;;;-3.20;99.90;;;;;;5006391;28;20471;-54
2024/01/09 12:14:52;;;;;;;59.93;37.37;;;-2.80;99.90;;;;;;5005695;28;20908;-53
2024/01/09 12:17:21;;;;;;;30.10;22.87;;;-2.30;99.90;;;;;;5001250;28;20549;-53
2024/01/09 12:19:47;;;;;;;17.00;11.93;;;-1.40;99.90;;;;;;5000189;28;20475;-53
2024/01/09 12:22:15;;;;;;;17.47;10.87;;;-0.70;99.90;;;;;;5000569;28;20469;-53
2024/01/09 12:24:42;;;;;;;16.23;13.33;;;0.50;99.90;;;;;;5000339;28;20512;-55